createdAt,value
2018-05-02T00:00:16.180Z,49.30
2018-05-02T00:02:42.670Z,49.50
2018-05-02T00:05:09.077Z,49.50
2018-05-02T00:07:35.531Z,49.60
2018-05-02T00:10:01.973Z,49.60
2018-05-02T00:12:28.484Z,49.50
2018-05-02T00:14:54.948Z,50.20
2018-05-02T00:17:21.356Z,50.10
2018-05-02T00:19:47.788Z,50.00
2018-05-02T00:22:14.191Z,50.50
2018-05-02T00:24:40.648Z,50.60
2018-05-02T00:27:07.052Z,50.80
2018-05-02T00:29:33.509Z,51.20
2018-05-02T00:31:59.914Z,51.10
2018-05-02T00:34:26.323Z,50.70
2018-05-02T00:36:53.514Z,50.50
2018-05-02T00:39:19.904Z,50.40
2018-05-02T00:41:47.394Z,50.80
2018-05-02T00:44:13.801Z,50.60
2018-05-02T00:46:40.975Z,50.60
2018-05-02T00:49:16.668Z,50.60
2018-05-02T00:51:43.750Z,51.10
2018-05-02T00:54:11.015Z,51.00
2018-05-02T00:56:37.983Z,50.90
2018-05-02T00:59:04.515Z,52.00
2018-05-02T01:01:30.969Z,51.60
2018-05-02T01:03:57.776Z,51.20
2018-05-02T01:06:24.191Z,50.90
2018-05-02T01:08:51.346Z,50.60
2018-05-02T01:11:25.845Z,50.60
2018-05-02T01:13:53.125Z,50.40
2018-05-02T01:16:19.531Z,50.40
2018-05-02T01:18:45.982Z,50.20
2018-05-02T01:21:13.191Z,49.50
2018-05-02T01:23:39.663Z,49.50
2018-05-02T01:26:06.830Z,49.30
2018-05-02T01:28:33.976Z,50.00
2018-05-02T01:31:00.399Z,50.00
2018-05-02T01:33:27.644Z,50.00
2018-05-02T01:35:55.003Z,50.20
2018-05-02T01:38:22.482Z,50.20
2018-05-02T01:40:49.229Z,50.20
2018-05-02T01:43:15.642Z,50.40
2018-05-02T01:45:43.125Z,50.80
2018-05-02T01:48:09.561Z,50.70
2018-05-02T01:50:36.007Z,48.60
2018-05-02T01:53:02.418Z,50.20
2018-05-02T01:55:28.943Z,50.20
2018-05-02T01:57:55.472Z,50.20
2018-05-02T02:00:22.752Z,49.90
2018-05-02T02:02:49.168Z,49.90
2018-05-02T02:05:15.904Z,50.10
2018-05-02T02:07:42.317Z,49.30
2018-05-02T02:10:09.493Z,49.60
2018-05-02T02:12:35.896Z,49.60
2018-05-02T02:15:03.184Z,49.40
2018-05-02T02:17:29.624Z,49.40
2018-05-02T02:19:56.009Z,49.40
2018-05-02T02:22:22.540Z,48.30
2018-05-02T02:24:48.944Z,47.80
2018-05-02T02:27:15.360Z,47.50
2018-05-02T02:29:41.808Z,47.30
2018-05-02T02:32:08.225Z,48.10
2018-05-02T02:34:34.644Z,48.30
2018-05-02T02:37:01.184Z,48.60
2018-05-02T02:39:27.613Z,48.70
2018-05-02T02:41:54.249Z,49.10
2018-05-02T02:44:20.696Z,49.00
2018-05-02T02:46:47.108Z,49.00
2018-05-02T02:49:13.492Z,49.00
2018-05-02T02:51:39.909Z,49.10
2018-05-02T02:54:06.391Z,49.70
2018-05-02T02:56:33.577Z,50.30
2018-05-02T02:59:00.037Z,50.30
2018-05-02T03:01:26.499Z,50.00
2018-05-02T03:03:54.757Z,50.00
2018-05-02T03:06:21.195Z,49.90
2018-05-02T03:08:47.611Z,50.10
2018-05-02T03:11:14.826Z,50.60
2018-05-02T03:13:41.304Z,50.40
2018-05-02T03:16:07.832Z,49.70
2018-05-02T03:18:34.245Z,49.50
2018-05-02T03:21:00.635Z,49.50
2018-05-02T03:23:27.790Z,49.60
2018-05-02T03:25:54.977Z,49.10
2018-05-02T03:28:21.383Z,49.70
2018-05-02T03:30:48.069Z,49.30
2018-05-02T03:33:14.476Z,49.20
2018-05-02T03:35:40.874Z,48.80
2018-05-02T03:38:07.330Z,49.10
2018-05-02T03:40:33.767Z,47.50
2018-05-02T03:43:00.165Z,49.00
2018-05-02T03:45:27.319Z,49.40
2018-05-02T03:47:54.566Z,49.60
2018-05-02T03:50:21.754Z,49.40
2018-05-02T03:52:48.184Z,49.30
2018-05-02T03:55:14.576Z,49.50
2018-05-02T03:57:41.001Z,49.90
2018-05-02T04:00:26.038Z,50.20
2018-05-02T04:03:10.987Z,50.40
2018-05-02T04:08:43.607Z,50.40
2018-05-02T04:11:10.016Z,50.40
2018-05-02T04:13:36.476Z,50.50
2018-05-02T04:16:02.881Z,50.60
2018-05-02T04:18:29.527Z,51.00
2018-05-02T04:20:56.021Z,50.50
2018-05-02T04:23:23.505Z,50.00
2018-05-02T04:25:49.935Z,50.00
2018-05-02T04:28:16.342Z,49.50
2018-05-02T04:30:43.529Z,49.30
2018-05-02T04:33:10.011Z,49.30
2018-05-02T04:35:36.470Z,49.30
2018-05-02T04:38:02.924Z,49.30
2018-05-02T04:40:29.326Z,49.90
2018-05-02T04:42:56.480Z,50.00
2018-05-02T04:45:23.965Z,50.10
2018-05-02T04:47:50.626Z,50.00
2018-05-02T04:50:17.340Z,49.50
2018-05-02T04:52:43.884Z,50.30
2018-05-02T04:55:10.335Z,49.90
2018-05-02T04:57:36.744Z,49.90
2018-05-02T05:00:03.225Z,49.70
2018-05-02T05:02:29.683Z,49.40
2018-05-02T05:04:56.824Z,49.30
2018-05-02T05:07:23.948Z,49.30
2018-05-02T05:09:50.415Z,49.30
2018-05-02T05:12:16.967Z,49.20
2018-05-02T05:14:43.642Z,48.50
2018-05-02T05:17:10.050Z,48.50
2018-05-02T05:19:36.433Z,48.50
2018-05-02T05:22:03.212Z,48.30
2018-05-02T05:24:30.435Z,48.10
2018-05-02T05:26:57.344Z,48.10
2018-05-02T05:29:24.868Z,48.50
2018-05-02T05:31:51.305Z,49.00
2018-05-02T05:34:17.859Z,48.90
2018-05-02T05:36:44.782Z,49.20
2018-05-02T05:39:11.276Z,49.40
2018-05-02T05:41:38.069Z,49.40
2018-05-02T05:44:04.486Z,49.70
2018-05-02T05:46:30.905Z,50.20
2018-05-02T05:48:58.274Z,50.70
2018-05-02T05:51:24.841Z,50.60
2018-05-02T05:53:51.231Z,50.80
2018-05-02T05:56:17.809Z,51.20
2018-05-02T05:58:44.223Z,51.30
2018-05-02T06:01:10.955Z,51.90
2018-05-02T06:03:37.418Z,52.10
2018-05-02T06:06:03.848Z,52.00
2018-05-02T06:08:30.259Z,52.00
2018-05-02T06:10:57.085Z,51.60
2018-05-02T06:13:24.252Z,50.20
2018-05-02T06:15:50.650Z,50.20
2018-05-02T06:18:17.148Z,49.90
2018-05-02T06:20:43.571Z,50.50
2018-05-02T06:23:09.965Z,50.00
2018-05-02T06:25:37.146Z,49.90
2018-05-02T06:28:03.632Z,49.80
2018-05-02T06:30:30.107Z,48.90
2018-05-02T06:32:56.528Z,48.70
2018-05-02T06:35:23.089Z,48.10
2018-05-02T06:37:49.513Z,49.10
2018-05-02T06:40:16.003Z,48.40
2018-05-02T06:42:42.400Z,48.30
2018-05-02T06:45:08.837Z,48.30
2018-05-02T06:47:35.378Z,49.20
2018-05-02T06:50:01.832Z,49.20
2018-05-02T06:52:29.338Z,48.90
2018-05-02T06:54:55.759Z,48.40
2018-05-02T06:57:22.141Z,48.50
2018-05-02T06:59:48.540Z,47.70
2018-05-02T07:02:15.018Z,47.70
2018-05-02T07:04:41.550Z,47.30
2018-05-02T07:07:09.136Z,47.20
2018-05-02T07:09:35.474Z,46.90
2018-05-02T07:12:02.702Z,46.10
2018-05-02T07:14:29.104Z,46.10
2018-05-02T07:16:55.572Z,45.80
2018-05-02T07:19:24.075Z,44.50
2018-05-02T07:21:50.488Z,44.50
2018-05-02T07:24:17.754Z,44.50
2018-05-02T07:26:44.910Z,44.60
2018-05-02T07:29:12.248Z,44.90
2018-05-02T07:31:39.400Z,44.60
2018-05-02T07:34:06.611Z,44.20
2018-05-02T07:36:33.032Z,44.20
2018-05-02T07:38:59.423Z,44.10
2018-05-02T07:41:26.610Z,43.70
2018-05-02T07:43:53.004Z,43.60
2018-05-02T07:46:20.250Z,43.70
2018-05-02T07:48:47.513Z,44.00
2018-05-02T07:51:13.912Z,43.90
2018-05-02T07:53:40.624Z,43.60
2018-05-02T07:56:07.077Z,43.80
2018-05-02T07:58:33.772Z,43.90
2018-05-02T08:01:00.202Z,44.20
2018-05-02T08:03:26.615Z,44.30
2018-05-02T08:05:53.787Z,44.50
2018-05-02T08:08:20.228Z,44.10
2018-05-02T08:10:46.764Z,44.70
2018-05-02T08:13:13.249Z,44.60
2018-05-02T08:15:40.083Z,44.10
2018-05-02T08:18:06.873Z,43.10
2018-05-02T08:20:33.244Z,42.40
2018-05-02T08:22:59.664Z,42.80
2018-05-02T08:25:26.067Z,41.90
2018-05-02T08:27:59.583Z,41.60
2018-05-02T08:30:26.028Z,41.80
2018-05-02T08:32:52.532Z,41.30
2018-05-02T08:35:18.849Z,40.60
2018-05-02T08:37:45.988Z,38.40
2018-05-02T08:40:13.174Z,38.40
2018-05-02T08:42:39.799Z,38.40
2018-05-02T08:45:06.210Z,37.80
2018-05-02T08:47:33.698Z,37.20
2018-05-02T08:50:00.143Z,37.10
2018-05-02T08:52:26.532Z,38.00
2018-05-02T08:54:53.713Z,36.70
2018-05-02T08:57:20.138Z,36.50
2018-05-02T08:59:46.544Z,35.90
2018-05-02T09:02:13.737Z,36.60
2018-05-02T09:04:40.897Z,35.50
2018-05-02T09:07:07.392Z,35.50
2018-05-02T09:09:34.525Z,35.40
2018-05-02T09:12:00.909Z,35.10
2018-05-02T09:14:27.316Z,34.00
2018-05-02T09:16:53.731Z,33.50
2018-05-02T09:19:20.889Z,34.20
2018-05-02T09:21:48.049Z,34.30
2018-05-02T09:24:14.803Z,34.20
2018-05-02T09:26:41.242Z,33.80
2018-05-02T09:29:07.873Z,34.10
2018-05-02T09:31:34.287Z,33.90
2018-05-02T09:34:00.707Z,34.20
2018-05-02T09:36:27.877Z,33.10
2018-05-02T09:38:54.267Z,33.10
2018-05-02T09:41:20.952Z,33.00
2018-05-02T09:43:47.485Z,32.90
2018-05-02T09:46:13.892Z,32.00
2018-05-02T09:48:41.066Z,31.70
2018-05-02T09:51:07.492Z,31.70
2018-05-02T09:53:34.651Z,31.30
2018-05-02T09:56:01.079Z,31.20
2018-05-02T09:58:27.471Z,30.80
2018-05-02T10:00:53.893Z,30.30
2018-05-02T10:03:20.391Z,30.90
2018-05-02T10:05:46.884Z,31.50
2018-05-02T10:08:14.076Z,32.10
2018-05-02T10:10:40.711Z,32.10
2018-05-02T10:13:07.112Z,32.10
2018-05-02T10:15:34.278Z,32.20
2018-05-02T10:18:01.523Z,32.10
2018-05-02T10:20:28.658Z,32.40
2018-05-02T10:22:55.845Z,32.30
2018-05-02T10:25:22.352Z,32.10
2018-05-02T10:27:49.516Z,32.90
2018-05-02T10:30:15.971Z,32.80
2018-05-02T10:32:42.361Z,35.60
2018-05-02T10:35:09.547Z,35.40
2018-05-02T10:37:35.954Z,35.40
2018-05-02T10:40:03.163Z,36.10
2018-05-02T10:42:29.560Z,36.10
2018-05-02T10:44:56.299Z,36.20
2018-05-02T10:47:22.713Z,36.30
2018-05-02T10:49:49.870Z,37.60
2018-05-02T10:52:16.331Z,37.60
2018-05-02T10:54:42.732Z,37.00
2018-05-02T10:57:09.881Z,36.40
2018-05-02T10:59:37.044Z,36.40
2018-05-02T11:02:03.456Z,36.20
2018-05-02T11:04:30.940Z,35.70
2018-05-02T11:06:57.396Z,35.60
2018-05-02T11:09:23.891Z,34.90
2018-05-02T11:11:50.311Z,35.50
2018-05-02T11:14:16.801Z,35.20
2018-05-02T11:16:43.286Z,35.20
2018-05-02T11:19:10.413Z,34.10
2018-05-02T11:21:37.100Z,34.20
2018-05-02T11:24:03.519Z,33.10
2018-05-02T11:26:30.682Z,33.70
2018-05-02T11:28:57.113Z,33.50
2018-05-02T11:31:23.591Z,33.10
2018-05-02T11:33:50.077Z,32.10
2018-05-02T11:36:16.826Z,32.70
2018-05-02T11:38:43.260Z,30.30
2018-05-02T11:41:09.656Z,30.50
2018-05-02T11:43:36.812Z,30.10
2018-05-02T11:46:04.068Z,30.00
2018-05-02T11:48:31.272Z,29.50
2018-05-02T11:50:57.799Z,29.30
2018-05-02T11:53:24.512Z,29.50
2018-05-02T11:55:50.987Z,29.40
2018-05-02T11:58:17.407Z,29.00
2018-05-02T12:00:43.827Z,29.40
2018-05-02T12:03:10.556Z,29.50
2018-05-02T12:05:37.095Z,29.70
2018-05-02T12:08:03.504Z,28.80
2018-05-02T12:10:30.966Z,28.80
2018-05-02T12:12:58.394Z,28.20
2018-05-02T12:15:24.809Z,28.20
2018-05-02T12:17:51.343Z,28.70
2018-05-02T12:20:17.749Z,29.10
2018-05-02T12:22:44.160Z,29.00
2018-05-02T12:25:10.581Z,28.70
2018-05-02T12:27:37.717Z,28.60
2018-05-02T12:30:06.570Z,29.60
2018-05-02T12:32:33.101Z,29.50
2018-05-02T12:34:59.560Z,29.60
2018-05-02T12:37:26.066Z,28.10
2018-05-02T12:39:52.496Z,27.70
2018-05-02T12:42:18.924Z,27.60
2018-05-02T12:44:45.319Z,27.10
2018-05-02T12:47:12.545Z,28.10
2018-05-02T12:49:38.994Z,28.10
2018-05-02T12:52:05.456Z,27.70
2018-05-02T12:54:31.859Z,28.90
2018-05-02T12:56:58.315Z,28.60
2018-05-02T12:59:25.806Z,29.40
2018-05-02T13:01:52.263Z,29.20
2018-05-02T13:04:18.963Z,29.70
2018-05-02T13:06:45.361Z,29.10
2018-05-02T13:09:12.550Z,29.00
2018-05-02T13:11:38.962Z,29.00
2018-05-02T13:14:06.123Z,29.10
2018-05-02T13:16:32.864Z,29.00
2018-05-02T13:18:59.279Z,29.50
2018-05-02T13:21:26.686Z,29.80
2018-05-02T13:23:53.092Z,28.50
2018-05-02T13:26:19.500Z,29.60
2018-05-02T13:28:46.973Z,30.50
2018-05-02T13:31:13.715Z,30.50
2018-05-02T13:33:40.436Z,30.60
2018-05-02T13:36:07.567Z,30.00
2018-05-02T13:38:34.729Z,30.80
2018-05-02T13:41:01.872Z,30.10
2018-05-02T13:43:29.183Z,30.80
2018-05-02T13:45:55.591Z,30.90
2018-05-02T13:48:21.977Z,30.50
2018-05-02T13:50:49.896Z,31.30
2018-05-02T13:53:16.321Z,31.40
2018-05-02T13:55:42.788Z,31.60
2018-05-02T13:58:09.500Z,31.70
2018-05-02T14:00:35.895Z,31.90
2018-05-02T14:03:02.347Z,31.30
2018-05-02T14:05:29.487Z,30.90
2018-05-02T14:07:56.660Z,30.90
2018-05-02T14:10:23.058Z,30.90
2018-05-02T14:12:50.226Z,30.50
2018-05-02T14:15:17.341Z,29.70
2018-05-02T14:17:44.488Z,29.30
2018-05-02T14:20:10.900Z,29.20
2018-05-02T14:22:37.342Z,28.30
2018-05-02T14:25:03.865Z,27.50
2018-05-02T14:27:30.579Z,28.20
2018-05-02T14:29:57.024Z,28.90
2018-05-02T14:32:23.427Z,28.80
2018-05-02T14:34:50.595Z,28.70
2018-05-02T14:37:17.336Z,28.70
2018-05-02T14:39:43.780Z,29.30
2018-05-02T14:42:10.278Z,29.50
2018-05-02T14:44:37.449Z,29.30
2018-05-02T14:47:03.889Z,29.30
2018-05-02T14:49:30.515Z,29.30
2018-05-02T14:51:56.949Z,28.50
2018-05-02T14:54:23.393Z,27.80
2018-05-02T14:56:50.037Z,27.60
2018-05-02T14:59:16.485Z,25.30
2018-05-02T15:01:42.941Z,26.10
2018-05-02T15:04:09.437Z,26.60
2018-05-02T15:06:35.947Z,27.20
2018-05-02T15:09:03.215Z,27.30
2018-05-02T15:11:29.659Z,27.20
2018-05-02T15:13:56.199Z,27.00
2018-05-02T15:16:22.638Z,26.70
2018-05-02T15:18:49.040Z,26.50
2018-05-02T15:21:15.795Z,28.70
2018-05-02T15:23:42.362Z,29.00
2018-05-02T15:26:09.309Z,29.20
2018-05-02T15:28:35.757Z,29.50
2018-05-02T15:31:03.760Z,29.80
2018-05-02T15:33:31.963Z,30.20
2018-05-02T15:35:58.488Z,30.20
2018-05-02T15:38:25.796Z,30.10
2018-05-02T15:40:52.288Z,30.80
2018-05-02T15:43:18.805Z,30.10
2018-05-02T15:45:46.508Z,30.10
2018-05-02T15:48:13.602Z,30.10
2018-05-02T15:50:40.781Z,30.70
2018-05-02T15:53:07.429Z,30.70
2018-05-02T15:55:33.976Z,30.80
2018-05-02T15:58:00.431Z,31.20
2018-05-02T16:00:27.662Z,32.00
2018-05-02T16:02:54.112Z,32.20
2018-05-02T16:05:20.515Z,32.20
2018-05-02T16:07:46.955Z,32.20
2018-05-02T16:10:13.368Z,32.40
2018-05-02T16:12:39.830Z,33.20
2018-05-02T16:15:06.554Z,33.10
2018-05-02T16:17:32.997Z,33.50
2018-05-02T16:19:59.528Z,34.00
2018-05-02T16:22:25.921Z,33.80
2018-05-02T16:24:53.094Z,34.60
2018-05-02T16:27:19.510Z,34.60
2018-05-02T16:29:46.692Z,34.50
2018-05-02T16:32:13.129Z,34.40
2018-05-02T16:34:39.549Z,34.40
2018-05-02T16:37:06.107Z,34.20
2018-05-02T16:39:32.856Z,34.60
2018-05-02T16:41:59.699Z,34.90
2018-05-02T16:44:26.090Z,34.60
2018-05-02T16:46:52.499Z,34.60
2018-05-02T16:49:19.714Z,34.80
2018-05-02T16:51:46.200Z,34.70
2018-05-02T16:54:12.648Z,34.60
2018-05-02T16:56:39.361Z,34.60
2018-05-02T16:59:05.809Z,35.10
2018-05-02T17:01:32.270Z,35.00
2018-05-02T17:03:58.677Z,35.10
2018-05-02T17:06:25.178Z,35.30
2018-05-02T17:08:52.330Z,36.20
2018-05-02T17:11:18.822Z,35.60
2018-05-02T17:13:45.934Z,35.70
2018-05-02T17:16:12.346Z,35.60
2018-05-02T17:18:39.583Z,36.30
2018-05-02T17:21:06.748Z,36.50
2018-05-02T17:23:33.184Z,36.50
2018-05-02T17:26:00.493Z,36.50
2018-05-02T17:28:27.028Z,36.50
2018-05-02T17:30:53.445Z,36.40
2018-05-02T17:33:20.569Z,36.70
2018-05-02T17:35:48.076Z,37.30
2018-05-02T17:38:14.562Z,37.30
2018-05-02T17:40:41.097Z,37.60
2018-05-02T17:43:07.526Z,37.20
2018-05-02T17:45:34.761Z,37.90
2018-05-02T17:48:01.569Z,37.80
2018-05-02T17:50:27.995Z,38.10
2018-05-02T17:52:54.565Z,38.00
2018-05-02T17:55:21.728Z,38.40
2018-05-02T17:57:48.949Z,38.10
2018-05-02T18:00:15.365Z,38.10
2018-05-02T18:02:41.791Z,38.30
2018-05-02T18:05:08.696Z,38.60
2018-05-02T18:07:35.925Z,38.80
2018-05-02T18:10:02.353Z,38.70
2018-05-02T18:12:28.745Z,38.90
2018-05-02T18:14:55.154Z,39.00
2018-05-02T18:17:21.571Z,38.90
2018-05-02T18:19:48.346Z,38.70
2018-05-02T18:22:14.773Z,39.40
2018-05-02T18:24:41.350Z,39.60
2018-05-02T18:27:07.937Z,40.00
2018-05-02T18:29:34.479Z,40.10
2018-05-02T18:32:00.951Z,40.40
2018-05-02T18:34:27.369Z,40.90
2018-05-02T18:36:53.895Z,41.20
2018-05-02T18:39:20.720Z,42.00
2018-05-02T18:41:47.282Z,41.30
2018-05-02T18:44:13.726Z,41.60
2018-05-02T18:46:40.219Z,42.10
2018-05-02T18:49:06.793Z,41.90
2018-05-02T18:51:33.189Z,42.20
2018-05-02T18:53:59.622Z,42.20
2018-05-02T18:56:26.468Z,42.80
2018-05-02T18:58:53.423Z,42.80
2018-05-02T19:01:20.924Z,42.70
2018-05-02T19:03:49.053Z,43.00
2018-05-02T19:06:15.506Z,43.30
2018-05-02T19:08:42.011Z,43.40
2018-05-02T19:11:08.472Z,43.50
2018-05-02T19:13:40.970Z,43.30
2018-05-02T19:16:07.485Z,43.50
2018-05-02T19:18:40.138Z,43.50
2018-05-02T19:21:06.574Z,44.00
2018-05-02T19:23:33.207Z,43.90
2018-05-02T19:26:05.798Z,44.50
2018-05-02T19:28:32.206Z,44.60
2018-05-02T19:34:03.634Z,45.80
2018-05-02T19:36:30.623Z,45.80
2018-05-02T19:38:57.897Z,45.90
2018-05-02T19:41:30.414Z,45.90
2018-05-02T19:44:03.165Z,46.10
2018-05-02T19:46:29.886Z,45.80
2018-05-02T19:48:56.448Z,45.90
2018-05-02T19:51:29.075Z,45.70
2018-05-02T19:53:56.338Z,46.10
2018-05-02T19:56:23.470Z,46.00
2018-05-02T19:58:50.660Z,46.20
2018-05-02T20:01:23.212Z,46.00
2018-05-02T20:03:49.905Z,46.40
2018-05-02T20:06:16.351Z,45.00
2018-05-02T20:08:48.861Z,46.30
2018-05-02T20:11:22.011Z,46.10
2018-05-02T20:13:54.612Z,45.80
2018-05-02T20:16:21.924Z,45.90
2018-05-02T20:18:48.607Z,45.90
2018-05-02T20:21:15.873Z,45.70
2018-05-02T20:23:43.118Z,46.00
2018-05-02T20:26:10.597Z,45.80
2018-05-02T20:28:37.167Z,45.80
2018-05-02T20:31:03.788Z,45.90
2018-05-02T20:33:30.319Z,46.00
2018-05-02T20:35:56.766Z,45.90
2018-05-02T20:38:23.356Z,46.00
2018-05-02T20:40:50.541Z,46.20
2018-05-02T20:43:16.987Z,46.20
2018-05-02T20:45:43.599Z,46.30
2018-05-02T20:48:10.020Z,46.20
2018-05-02T20:50:36.448Z,46.20
2018-05-02T20:53:03.615Z,46.40
2018-05-02T20:55:30.046Z,46.30
2018-05-02T20:57:56.474Z,46.30
2018-05-02T21:00:22.865Z,46.30
2018-05-02T21:02:49.347Z,46.60
2018-05-02T21:05:15.753Z,46.40
2018-05-02T21:07:42.905Z,46.30
2018-05-02T21:10:10.322Z,46.30
2018-05-02T21:12:36.744Z,46.30
2018-05-02T21:15:03.162Z,46.00
2018-05-02T21:17:29.596Z,46.40
2018-05-02T21:19:56.321Z,46.20
2018-05-02T21:22:22.736Z,46.20
2018-05-02T21:24:50.015Z,45.70
2018-05-02T21:27:16.442Z,45.70
2018-05-02T21:29:42.851Z,45.50
2018-05-02T21:32:10.262Z,45.30
2018-05-02T21:34:36.683Z,45.10
2018-05-02T21:37:03.119Z,45.50
2018-05-02T21:39:29.609Z,45.30
2018-05-02T21:41:57.090Z,45.40
2018-05-02T21:44:23.508Z,45.40
2018-05-02T21:46:50.652Z,45.50
2018-05-02T21:49:17.865Z,45.40
2018-05-02T21:51:45.025Z,45.30
2018-05-02T21:54:11.608Z,45.20
2018-05-02T21:56:38.956Z,45.30
2018-05-02T21:59:05.363Z,45.00
2018-05-02T22:01:32.537Z,45.30
2018-05-02T22:03:58.987Z,45.10
2018-05-02T22:06:25.722Z,45.40
2018-05-02T22:08:52.143Z,45.30
2018-05-02T22:11:18.749Z,45.30
2018-05-02T22:13:46.057Z,45.40
2018-05-02T22:16:12.483Z,45.30
2018-05-02T22:18:38.931Z,45.60
2018-05-02T22:21:05.649Z,45.20
2018-05-02T22:23:32.732Z,45.50
2018-05-02T22:25:59.173Z,45.30
2018-05-02T22:28:26.655Z,45.40
2018-05-02T22:30:55.211Z,45.70
2018-05-02T22:33:22.763Z,45.40
2018-05-02T22:35:49.292Z,45.60
2018-05-02T22:38:15.780Z,45.50
2018-05-02T22:40:43.901Z,45.60
2018-05-02T22:43:10.335Z,45.60
2018-05-02T22:45:36.932Z,45.60
2018-05-02T22:48:03.414Z,45.80
2018-05-02T22:50:29.836Z,45.80
2018-05-02T22:52:56.285Z,45.60
2018-05-02T22:55:22.704Z,46.00
2018-05-02T22:57:49.121Z,46.20
2018-05-02T23:00:15.687Z,46.30
2018-05-02T23:02:42.217Z,46.30
2018-05-02T23:05:08.918Z,46.30
2018-05-02T23:07:35.315Z,46.40
2018-05-02T23:10:02.522Z,47.10
2018-05-02T23:12:28.903Z,46.40
2018-05-02T23:14:56.054Z,47.20
2018-05-02T23:17:23.207Z,47.20
2018-05-02T23:19:50.451Z,47.60
2018-05-02T23:22:17.609Z,47.80
2018-05-02T23:24:44.041Z,47.50
2018-05-02T23:27:11.315Z,48.00
2018-05-02T23:29:37.822Z,48.00
2018-05-02T23:32:05.087Z,48.10
2018-05-02T23:34:32.253Z,48.00
2018-05-02T23:36:58.679Z,48.00
2018-05-02T23:39:25.135Z,47.90
2018-05-02T23:41:51.591Z,48.10
2018-05-02T23:44:18.393Z,47.90
2018-05-02T23:46:44.887Z,48.00
2018-05-02T23:49:11.335Z,48.10
2018-05-02T23:51:38.548Z,48.10
2018-05-02T23:54:04.980Z,48.00
2018-05-02T23:56:31.445Z,48.10
2018-05-02T23:58:58.759Z,48.10
